SBGW

Guaratinguetá Airport

Guaratinguetá, Brazil
TAF SBGW 251400Z 2518/2606 04002KT 7000 FEW030 TX32/2518Z TN18/2605Z BECMG 2522/2524 10005KT 8000 BKN020 RMK PDV
Issued Valid From Valid To
Sep-25 @ 14:00 UTC
(5 hours ago)
Sep-25 @ 18:00 UTC
(an hour ago)
Sep-26 @ 06:00 UTC
(in 11 hours)
Sep-25 @ 18:00 to Sep-25 @ 22:00
TAF SBGW 251400Z 2518/2606 04002KT 7000 FEW030 TX32/2518Z TN18/2605Z
Wind Visibility Clouds
40° at 2 knots 7,001 meters
  • Few at 3,000' AGL
Becoming Sep-25 @ 22:00 to Sep-26 @ 06:00
BECMG 2522/2524 10005KT 8000 BKN020 RMK PDV
Wind Visibility Clouds
100° at 5 knots 7,998 meters
  • Broken at 2,000' AGL
TAF SBGW 251400Z 2518/2606 04002KT 7000 FEW030 TX32/2518Z TN18/2605Z BECMG 2522/2524 10005KT 8000 BKN020 RMK PDV
Issued Sep-25 @ 14:00 UTC
(5 hours ago)
Valid From Sep-25 @ 18:00 UTC
(an hour ago)
Valid To Sep-26 @ 06:00 UTC
(in 11 hours)
Sep-25 @ 18:00 - Sep-25 @ 22:00
Wind Visibility
40° at 2 knots 7,001 meters
Clouds
  • Few at 3,000' AGL
Becoming Sep-25 @ 22:00 - Sep-26 @ 06:00
Wind Visibility
100° at 5 knots 7,998 meters
Clouds
  • Broken at 2,000' AGL